Yampa, CO (80483)

5:21 PM MST on December 02, 2016 (GMT -0700)
Oak Creek | | Change Station

Elev 7444 ft 40.27 °N, 106.96 °W | Updated 20 seconds ago

Overcast
Overcast
17.7 °F
Feels Like 18 °F
N
3.0
Wind Variable Wind from ENE
Gusts 5.0 mph

Today
High -- | Low -- °F
--% Chance of Precip.
Yesterday
High -- | Low -- °F
Precip. -- in
Pressure 30.13 in
Visibility 5.0 miles
Clouds Mostly Cloudy 1700 ft
Overcast 2300 ft
Windchill 18 °F
Dew Point 15 °F
Humidity 88%
Rainfall 0.00 in
Snow Depth Not available.
7:12 AM 4:42 PM
Waxing Crescent, 11% visible
METAR KSBS 030015Z AUTO 00000KT 5SM BKN017 OVC023 M07/M09 A3013 RMK AO1 T10711091
Pressure 30.13 in
Visibility 5.0 miles
Clouds Mostly Cloudy 1700 ft
Overcast 2300 ft
Windchill 18 °F
Dew Point 15 °F
Humidity 88%
Rainfall 0.00 in
Snow Depth Not available.
7:12 AM 4:42 PM
Waxing Crescent, 11% visible
METAR KSBS 030015Z AUTO 00000KT 5SM BKN017 OVC023 M07/M09 A3013 RMK AO1 T10711091

10-Day Weather Forecast

Almanac

Astronomy

Dec. 02, 2016 Rise Set
Actual Time
Civil Twilight
Nautical Twilight
Astronomical Twilight
Moon
Length of Visible Light
Length of Day
Tomorrow will be .
, % of the Moon is Illuminated

Today's Extremes

State Highs State Lows

Community

WunderPhotos

Upload Photos

1,955,380 photos uploaded!

WunderBlog® & News

Nearby

Air Quality

  Air Quality AQ Index Pollutant
Not available.

Snow Depth

Station Depth Elevation

Earthquake Activity

City Distance Mag. Time & Date
Minimum magnitude displayed is 2.5.

Coastal Water Temperatures

Place Temperature

Stations

Nearby Weather Stations

Station Location Temp. Windchill Dew Point Humidity Wind Precip. Elev Updated Type
                   

Watches & Warnings

There are currently no watches in effect.